Kezdőlap
METAR-TAF:

METAR-TAF

Repülőterek :

Bad Vöslau, Ausztria

földrajzi szélesség: 47-57-52N, földrajzi hosszúság: 016-15-34E, magasság: 233 m

Jelenlegi meteorológiai megfigyelések

A jelentés 4 órával és 47 perccel ezelõtt készült, 15:00 UTC
Különbözõ irányokból fújó szél 2 kt
Hőmérséklet 7°C
Páratartalom 66%
Légköri nyomás

METAR: LOAV 161500Z VRB02KT 20KM FEW050SC 07/01

Idő: 20:47 (19:47 UTC)

Előrejelzés

A jelentés 8 órával és 22 perccel ezelõtt készült, 11:25 UTC
Az előrejelzés 16-én 12 óra UTC és 16-én 21 óra UTC között érvényes
Dél-délkeleti szél 5 kt
Látótávolság 10 km, vagy több
Kevés felhő 5000 lábon

TAF: LOAV 161125Z 1612/1621 16005KT 9999 FEW050

Meteorológiai megfigyelések és előrejelzések több, mint 4000 repülőtéren (METAR és TAF jelentéseket).

A térképen piros és sárga pontok jelzik az elérhető meteorológiai állomásokat.

Mozgassa az egeret a pont fölött, hogy megjelenjen az állomás neve.

Azután kattintson az időjárási megfigyelések és előrejelzések megtekintéséhez.

A térkép megváltoztatása: kattintson a fekete keresztel jelölt zöld gombra ráközelítéshez, a vonallal jelölt zöld gombra távolításhoz, vagy a zöld nyilakra a szomszédos térképek eléréséhez.


METAR-TAF: